Ships in port

Last updated: 25-06-2019 18:20

Ship name Call sign IMO Agent Date Time Berth Arrived From Purpose of call Cargo Loaded in/for Homeport ETD Date ETD Time GT Deadweight Width (BR) DR arr. Length (LOA)
SC FALCON 2HDA9 9999999 Blue Water Shipping A/S 25-06-2019 17:00 2 DK OFFSHORE INSTALLATIONS Passenger call Passengers 26-06-2019 07:22 30 28 6,1 2,0 18,5
SC SAPPHIRE MCQL6 9999999 North Sea Hagland Shipbrokers ApS. 25-06-2019 17:00 4 DK OFFSHORE INSTALLATIONS Passenger call Passengers 26-06-2019 07:22 91 0 7,0 2,0 24,0
ELISABETH M OXRF2 4400208 KEM-Offshore ApS 25-06-2019 17:00 21 DK OFFSHORE INSTALLATIONS Passenger call Passengers ESBJERG 26-06-2019 07:22 66 0 4,9 2,1 20,8
CONTENDER OYED2 9677820 Northern Offshore Services A/S 25-06-2019 17:00 3 DK OFFSHORE INSTALLATIONS Passenger call Passengers ESBJERG 26-06-2019 07:22 161 0 10,4 2,1 25,1
ORKAMA M OZBO2 9999999 KEM-Offshore ApS 25-06-2019 17:00 21 DK OFFSHORE INSTALLATIONS Passenger call Passengers ESBJERG 26-06-2019 07:22 74 0 4,9 2,0 22,4
ARK GERMANIA OZHJ2 9609952 DFDS A/S 25-06-2019 15:15 814 Immingham Discharge/load Trailers København 25-06-2019 20:30 33313 24485 33,2 6,2 195,2
EKFORS LADX7 9255878 Niels Winther Maritime ApS 25-06-2019 13:45 101 Amsterdam Discharge Gas oil Arendal 26-06-2019 07:00 8829 0 20,8 7,6 134,7
NORMAND FLOWER LAXN7 9249489 NorSea Group Denmark A/S 25-06-2019 13:35 402 OTHER DENMARK Demobilisation SKUDENSHAVN 27-06-2019 18:00 5402 4115 21,0 6,3 93,1
NJORD SKUA 2HGG9 9999999 Niels Winther Maritime ApS 25-06-2019 13:25 83 DK OFFSHORE INSTALLATIONS Passenger call Passengers Jersey 26-06-2019 07:22 72 0 8,0 2,2 21,0
ESVAGT CAPELLA OVQK2 9302047 Esvagt A/S 25-06-2019 09:05 301 DK OFFSHORE INSTALLATIONS Crew change/Provion/Bunkers ESBJERG 30-06-2019 22:22 931 400 11,5 4,5 44,0
DANMARK OXDK 5086279 Esbjerg Shipyard 25-06-2019 08:55 51 Rønne Repair Copenhagen 05-12-2019 14:00 737 0 10,1 4,9 65,0
EURUS EXPRESS OXGO2 9122978 Total E&P Danmark A/S 25-06-2019 07:50 505 DK OFFSHORE INSTALLATIONS Discharge/load Offshore cargo FREDERICIA 25-06-2019 20:00 3171 4170 19,7 4,9 83,7
SCOTIA (E 567) OZYG 9999999 Tony Divers 25-06-2019 07:50 12 OTHER DENMARK Discharge Shrimps ESBJERG 28-06-2019 22:22 69 0 5,8 2,5 17,8
SAMANTHA (RI 159) OUVG 9999999 Partrederiet RI 159 v/Nicklas Davidsen 25-06-2019 07:40 12 OTHER DENMARK Discharge Shrimps HVIDE SANDE 28-06-2019 22:22 61 0 5,8 2,5 17,2
MALLEMUKKEN (L 299) OWGC 5128073 L 299 Mallemukken 25-06-2019 07:35 12 OTHER DENMARK Discharge Shrimps THORSMINDE 28-06-2019 22:22 31 0 4,4 2,5 15,5
KATJA (E 35) OXEL 9999999 Jan Magnussen / Kutter Katja E 35 25-06-2019 07:30 12 OTHER DENMARK Discharge Shrimps ESBJERG 28-06-2019 22:22 61 0 5,8 2,5 17,0
HAVILA HEROY LCCC 9455832 Total E&P Danmark A/S 25-06-2019 07:25 504 DK OFFSHORE INSTALLATIONS Discharge/load Offshore cargo FOSNAVÅG 25-06-2019 16:00 3062 4100 17,6 5,1 80,4
FOB SWATH 7 OWSJ2 9772785 Offshore Windservice A/S 25-06-2019 01:45 53 DK OFFSHORE INSTALLATIONS Passenger call Passengers Hvide Sande 26-06-2019 20:22 331 0 11,0 2,1 33,2
ROTRA VENTE PBPH 9805568 Jutlandia Terminal A/S 24-06-2019 23:25 709 Cuxhaven Discharge/load Wind mill equipment WERKENDAM 25-06-2019 18:00 6200 9100 21,4 6,6 141,6
LOKE R OWAX2 9999999 Rohde Nielsen A/S 24-06-2019 21:30 305 Grenå Crew change/Provion/Bunkers GRENÅ 30-06-2019 12:22 182 0 7,0 3,0 23,0
MERI OJPH 9622502 Jutlandia Terminal A/S 24-06-2019 20:15 803 Nakskov Discharge Blades (vindmøllevinger) TURKU 25-06-2019 22:22 3360 4359 18,8 4,0 105,4
DITTE JUUL (RI 562) OZWK 9999999 Kutter Ditte Juul Ri 562 24-06-2019 14:10 12 OTHER DENMARK Discharge Shrimps HVIDE SANDE 28-06-2019 22:22 58 0 5,5 2,5 17,2
SOFIA KAUL (E 41) OVPT 9999999 KAUL ApS 24-06-2019 11:45 12 OTHER DENMARK Discharge Shrimps Esbjerg 28-06-2019 22:22 79 0 5,8 2,5 20,0
IDA SARA (E 710) OYHO 9999999 Fiskeriselskabet Ida Sara E 710 ApS 24-06-2019 08:25 12 OTHER DENMARK Discharge Shrimps ESBJERG 28-06-2019 22:22 62 0 5,8 2,5 17,2
FELIS J8B4754 7208613 Niels Winther Maritime ApS 23-06-2019 22:55 305 Szczecin Crew change/Provion/Bunkers ST VINCENT & THE GRENADINES 25-06-2019 16:00 277 199 9,4 4,5 32,6
REYKJANES OVSI2 7392311 Regnskabsbureauet ApS 23-06-2019 13:20 59 DK OFFSHORE INSTALLATIONS Crew change/Provion/Bunkers ESBJERG 01-07-2019 15:00 442 427 8,3 4,2 39,8
SYMPHONY SEA PDDJ 9721657 Blue Water Shipping A/S 23-06-2019 07:45 713 Hull Load Wind turbines Rotterdam 25-06-2019 20:22 6749 10600 17,1 5,0 122,5
SUPPORTER OXNM2 1234584 Northern Offshore Services A/S 22-06-2019 20:15 3 Rendsburg Passenger call Passengers Skagen 25-06-2019 07:22 26 0 7,4 2,1 18,2
MPI ENTERPRISE PCZJ 9578244 Blue Water Shipping A/S 22-06-2019 07:50 201 Bremerhaven Discharge Wind mill equipment BRESKENS 30-06-2019 23:22 11730 6314 40,0 6,5 120,8
ARCTIC HUNTER OUWK2 7719832 O.S. Energy GmbH 21-06-2019 19:00 55 OFFSHORE, NORTH SEA Crew change/Provion/Bunkers Esbjerg 28-06-2019 10:22 453 415 9,0 3,8 40,6
CONNECTOR EXPRESS OYOJ2 9244568 Niels Winther Maritime ApS 21-06-2019 12:05 107 DK OFFSHORE INSTALLATIONS Await orders FREDERICIA 30-06-2019 12:22 4030 4505 19,0 5,6 90,2
SEA COMFORT OUZK2 9674282 TP Offshore A/S 21-06-2019 11:00 5 Borkum I. Crew change/Provion/Bunkers Grenaa 30-06-2019 12:22 326 0 11,3 2,8 25,3
LYØ (MHV 904) OVLD 219000161 Lokal Støtte Element Varde 20-06-2019 00:05 307 Helgoland I. Environmental protection Esbjerg 30-06-2019 22:22 100 0 5,6 3,6 27,2
RUNE EGHOLM (E 426) OYCG 9999999 Fiskeriselskabet Rune Egholm E 426 19-06-2019 23:30 12 OTHER DENMARK ESBJERG 30-06-2019 10:22 67 0 5,9 0,0 18,0
ISLAND CAPTAIN 3YHO 9579482 Blue Water Shipping A/S 19-06-2019 19:00 113 DK OFFSHORE INSTALLATIONS Load Drill chemicals ÅLESUND 30-06-2019 22:22 4841 4500 20,0 6,0 93,0
THOR EXPRESS OXLM2 9104017 Niels Winther & CO Skibsekspedition ApS 19-06-2019 09:30 502 Emden Await orders Fredericia 26-06-2019 22:22 3147 4115 19,0 4,8 82,5
WILHELMINA (E 78) OUSS 8718811 Fiskeriselskabet Cardium A/S 17-06-2019 16:30 62 OTHER DENMARK Discharge Bivalves (muslinger) ESBJERG 30-06-2019 10:22 283 316 10,0 2,2 40,2
MJOLNER R OULG2 9068110 Rohde Nielsen A/S 16-06-2019 15:15 86 Rønne Repair GRENÅ 30-06-2019 16:22 778 336 15,0 2,0 45,6
EDDA FJORD LACU8 9246114 Niels Winther Maritime ApS 12-06-2019 23:15 206 OTHER DENMARK Crew change/Provion/Bunkers Haugesund 30-06-2019 12:00 5886 6600 22,0 6,2 98,2
KAREN M OWFL2 8228830 KEM-Offshore ApS 12-06-2019 20:20 23 OTHER DENMARK Crew change/Provion/Bunkers Esbjerg 30-06-2019 16:22 108 0 6,0 2,1 26,9
NORDSØEN OXGD 6804408 KEM-Offshore ApS 12-06-2019 14:00 52 DK OFFSHORE INSTALLATIONS Crew change/Provion/Bunkers ESBJERG 30-06-2019 20:22 475 0 10,0 4,0 52,9
SØLØVEN OXQL2 8862569 O.S. Energy GmbH 08-06-2019 05:25 84 OFFSHORE, NORTH SEA Crew change/Provion/Bunkers ESBJERG 30-06-2019 22:22 390 0 8,5 3,5 46,0
BLUE ARIES OWRC2 8401963 North Sea Hagland Shipbrokers ApS. 04-06-2019 19:30 501 Cuxhaven Await orders FÅBORG 30-06-2019 19:22 2887 2903 17,6 0,0 75,4
MARGRETHE M OVOR2 9999999 KEM-Offshore ApS 02-06-2019 15:45 21 DK OFFSHORE INSTALLATIONS Passenger call Passengers ESBJERG 30-06-2019 07:22 49 0 5,0 2,0 19,8
STATHAV 9 FTJ1312 9999999 Nordic Marine Oil A/S 01-06-2019 00:05 14 Esbjerg Bunker another vessel KØBENHAVN 30-06-2019 23:55 19 0 4,3 1,5 12,4
CICALA MFBZ4 8891443 M/V ST. CICALA / John Cefferty 01-06-2019 00:05 88 Esbjerg Temporary laid up MANCHESTER 30-06-2019 23:55 270 0 8,5 1,5 30,7
KIRSTEN GULLEV OU5826 9999999 Nordic Marine Oil A/S 01-06-2019 00:05 14 OTHER DENMARK Bunker another vessel ESBJERG 30-06-2019 23:55 21 70 4,3 1,5 14,4
FØNIKS SUPPORTER OUBJ2 8661020 Bunker One A/S 01-06-2019 00:05 7 Esbjerg Bunker another vessel københavn 30-06-2019 23:55 226 0 9,0 1,5 25,2
STATHAV 22 OWGA2 9999999 Nordic Marine Oil A/S 01-06-2019 00:05 14 Esbjerg Bunker another vessel Skagen 30-06-2019 23:55 131 0 6,5 3,5 27,4
SVITZER HELIOS OWLX2 7321659 EM. Z. Svitzer A/S 01-06-2019 00:05 307 Esbjerg Towing ESBJERG 30-06-2019 23:55 304 650 9,8 4,7 32,9
SOUNDLINK OXFT2 9999999 B B Towing og Diving A/S 01-06-2019 00:05 65 Esbjerg Towing Esbjerg 30-06-2019 23:55 30 0 4,2 1,5 13,0
FENJA OYIQ 9189378 Molslinjen A/S 01-06-2019 00:05 209 Nordby Havn, Fanø Passenger call Passengers - cars ESBJERG 30-06-2019 23:55 751 230 13,8 2,5 49,9
MENJA OYIU 9189380 Molslinjen A/S 01-06-2019 00:05 300 Nordby Havn, Fanø Passenger call Passengers - cars ESBJERG 30-06-2019 23:55 751 230 13,8 2,5 49,9
SONDERHO OYVH 8946779 Molslinjen A/S 01-06-2019 00:05 86 Nordby Havn, Fanø Passenger call Passengers ESBJERG 30-06-2019 23:55 93 30 6,0 1,5 25,0
SIGYN OZHB2 9114361 EM. Z. Svitzer A/S 01-06-2019 00:05 306 OTHER DENMARK Towing Kalundborg 30-06-2019 23:55 485 311 10,8 5,0 33,8
SIF R PIVA 7424358 Rohde Nielsen A/S 31-05-2019 01:15 999 Svendborg Dredging ZEIST 30-06-2019 22:22 1693 2700 13,8 3,0 80,0
PACIFIC ORCA 5BRE3 9601326 Blue Water Shipping A/S 18-05-2019 04:00 76 DK OFFSHORE INSTALLATIONS Demobilisation Limassol 30-06-2019 22:22 24586 13155 49,0 5,5 161,3
SEAJACKS SCYLLA 3FSA3 9698939 Seajacks International Limited 21-04-2019 05:40 84 DK OFFSHORE INSTALLATIONS Demobilisation Panama 30-06-2019 23:55 23641 18907 50,0 8,8 139,0
BLUE ORCA WDG8787 9670341 Jutlandia Terminal A/S 11-04-2019 10:30 509 OTHER DENMARK Load Chemicals Galliano, LA 30-06-2019 22:22 7115 5065 18,3 6,5 94,8
PACIFIC OSPREY 5BUF3 9621704 Swire Blue Ocean 07-04-2019 00:40 117 Rotterdam Demobilisation Limassol 30-06-2019 15:22 24586 13155 49,0 5,5 161,3
BLUE ANTARES OXJJ6 8401949 North Sea Hagland Shipbrokers ApS. 31-03-2019 08:05 309 Eemshaven (NLEEM) Crew change/Provion/Bunkers Faaborg 30-06-2019 22:22 2887 2800 18,5 5,5 76,4
RAN XPKY 7043829 Thor P/F Ltd. 18-03-2019 11:20 84 Thorshavn Temporary laid up THORSHAVN 30-06-2019 23:59 1100 1072 11,0 5,1 60,1
DI-JE (E 61) OWFZ 5128062 Partsrederiet E 61 Di-Je 03-02-2019 17:30 12 OTHER DENMARK Discharge Shrimps ESBJERG 30-06-2019 19:22 48 0 6,5 2,5 20,0
HEIMDAL OXQN2 9999999 KEM-Offshore ApS 10-10-2018 14:00 21 DK OFFSHORE INSTALLATIONS Passenger call Passengers ESBJERG 30-06-2019 07:22 19 10 5,0 1,5 16,1
MADOG V4DR 6615467 Malta Towage Limited 14-09-2018 14:00 89 Esbjerg Temporary laid up BASSETERRE - ST KITTS 30-06-2019 23:55 185 0 7,2 3,7 25,7
KURBERG OW2361 8600064 Thor P/F Ltd. 16-07-2018 18:35 88 Other ports, Færø Islands Temporary laid up Torshavn 31-12-2019 23:55 488 488 8,9 3,5 38,6
TORSVIK OZ2029 7807316 Thor P/F Ltd. 13-07-2018 09:30 88 Las Palmas Temporary laid up Hosvik 31-12-2019 23:55 370 0 8,5 3,6 39,2
COLGA 9V9536 8751473 Dixstone Holding LtD 24-05-2018 06:22 78 OTHER DENMARK Repair Singapore 30-06-2019 23:59 9352 0 86,3 9,8 74,7
SALLING OUIG2 7431571 Salling Offshore-Service ApS 21-05-2018 18:55 59 OTHER DENMARK Crew change/Provion/Bunkers Esbjerg 30-06-2019 23:22 370 300 7,2 4,6 37,9
MAERSK GIANT OU2465 8415768 Blue Water Shipping A/S 10-11-2016 11:00 84 OTHER DENMARK Temporary laid up SVENDBORG 30-06-2019 23:59 16325 0 95,6 8,2 80,8
DIGI OVXM 9999999 Esbjerg Bedding ApS 31-01-2015 22:10 66 Hvide Sande Shelter LEMVIG 31-12-2019 23:59 29 0 4,2 1,0 15,5